sensor_id;sensor_type;location;lat;lon;timestamp;temperature;humidity
41884;DHT22;27566;50.930;5.328;2023-10-13T00:00:38;20.00;86.40
41884;DHT22;27566;50.930;5.328;2023-10-13T00:03:08;20.00;86.40
41884;DHT22;27566;50.930;5.328;2023-10-13T00:05:45;20.10;86.40
41884;DHT22;27566;50.930;5.328;2023-10-13T00:08:12;20.10;86.40
41884;DHT22;27566;50.930;5.328;2023-10-13T00:10:39;20.10;86.40
41884;DHT22;27566;50.930;5.328;2023-10-13T00:13:05;20.10;86.30
41884;DHT22;27566;50.930;5.328;2023-10-13T00:15:46;20.10;86.40
41884;DHT22;27566;50.930;5.328;2023-10-13T00:18:31;20.10;86.40
41884;DHT22;27566;50.930;5.328;2023-10-13T00:21:01;20.10;86.40
41884;DHT22;27566;50.930;5.328;2023-10-13T00:23:44;20.10;86.40
41884;DHT22;27566;50.930;5.328;2023-10-13T00:26:25;20.10;86.40
41884;DHT22;27566;50.930;5.328;2023-10-13T00:28:58;20.10;86.40
41884;DHT22;27566;50.930;5.328;2023-10-13T00:31:28;20.10;86.40
41884;DHT22;27566;50.930;5.328;2023-10-13T00:34:03;20.10;86.50
41884;DHT22;27566;50.930;5.328;2023-10-13T00:36:42;20.10;86.60
41884;DHT22;27566;50.930;5.328;2023-10-13T00:39:26;20.10;86.50
41884;DHT22;27566;50.930;5.328;2023-10-13T00:41:54;20.10;86.40
41884;DHT22;27566;50.930;5.328;2023-10-13T00:44:32;20.10;86.60
41884;DHT22;27566;50.930;5.328;2023-10-13T00:47:09;20.10;86.80
41884;DHT22;27566;50.930;5.328;2023-10-13T00:49:36;20.10;86.90
41884;DHT22;27566;50.930;5.328;2023-10-13T00:52:06;20.10;86.70
41884;DHT22;27566;50.930;5.328;2023-10-13T00:54:37;20.10;86.70
41884;DHT22;27566;50.930;5.328;2023-10-13T00:57:04;20.10;86.60
41884;DHT22;27566;50.930;5.328;2023-10-13T00:59:38;20.10;86.70
41884;DHT22;27566;50.930;5.328;2023-10-13T01:02:04;20.10;86.70
41884;DHT22;27566;50.930;5.328;2023-10-13T01:04:55;20.10;86.80
41884;DHT22;27566;50.930;5.328;2023-10-13T01:07:22;20.10;86.70
41884;DHT22;27566;50.930;5.328;2023-10-13T01:09:48;20.10;86.70
41884;DHT22;27566;50.930;5.328;2023-10-13T01:12:14;20.10;86.80
41884;DHT22;27566;50.930;5.328;2023-10-13T01:14:40;20.10;86.90
41884;DHT22;27566;50.930;5.328;2023-10-13T01:17:06;20.10;87.10
41884;DHT22;27566;50.930;5.328;2023-10-13T01:19:36;20.10;87.20
41884;DHT22;27566;50.930;5.328;2023-10-13T01:22:04;20.10;87.30
41884;DHT22;27566;50.930;5.328;2023-10-13T01:24:32;20.00;87.30
41884;DHT22;27566;50.930;5.328;2023-10-13T01:27:04;20.00;87.50
41884;DHT22;27566;50.930;5.328;2023-10-13T01:29:46;19.90;87.50
41884;DHT22;27566;50.930;5.328;2023-10-13T01:32:21;19.90;87.80
41884;DHT22;27566;50.930;5.328;2023-10-13T01:34:47;19.90;88.00
41884;DHT22;27566;50.930;5.328;2023-10-13T01:37:15;19.90;88.10
41884;DHT22;27566;50.930;5.328;2023-10-13T01:39:45;19.90;88.30
41884;DHT22;27566;50.930;5.328;2023-10-13T01:42:17;19.90;88.40
41884;DHT22;27566;50.930;5.328;2023-10-13T01:44:47;19.90;88.50
41884;DHT22;27566;50.930;5.328;2023-10-13T01:47:14;19.90;88.40
41884;DHT22;27566;50.930;5.328;2023-10-13T01:49:42;19.90;88.50
41884;DHT22;27566;50.930;5.328;2023-10-13T01:52:09;19.90;88.70
41884;DHT22;27566;50.930;5.328;2023-10-13T01:54:41;19.90;88.70
41884;DHT22;27566;50.930;5.328;2023-10-13T01:57:10;20.00;88.80
41884;DHT22;27566;50.930;5.328;2023-10-13T01:59:47;20.00;88.80
41884;DHT22;27566;50.930;5.328;2023-10-13T02:02:13;20.00;88.80
41884;DHT22;27566;50.930;5.328;2023-10-13T02:04:40;20.00;88.90
41884;DHT22;27566;50.930;5.328;2023-10-13T02:07:16;20.00;88.90
41884;DHT22;27566;50.930;5.328;2023-10-13T02:09:59;19.90;88.80
41884;DHT22;27566;50.930;5.328;2023-10-13T02:12:25;19.90;88.90
41884;DHT22;27566;50.930;5.328;2023-10-13T02:15:01;19.90;89.00
41884;DHT22;27566;50.930;5.328;2023-10-13T02:17:30;19.80;89.00
41884;DHT22;27566;50.930;5.328;2023-10-13T02:20:09;19.90;89.10
41884;DHT22;27566;50.930;5.328;2023-10-13T02:22:41;19.80;89.10
41884;DHT22;27566;50.930;5.328;2023-10-13T02:25:18;19.90;89.20
41884;DHT22;27566;50.930;5.328;2023-10-13T02:28:04;19.90;89.30
41884;DHT22;27566;50.930;5.328;2023-10-13T02:30:40;19.90;89.40
41884;DHT22;27566;50.930;5.328;2023-10-13T02:33:11;19.90;89.40
41884;DHT22;27566;50.930;5.328;2023-10-13T02:35:38;19.80;89.40
41884;DHT22;27566;50.930;5.328;2023-10-13T02:38:08;19.80;89.40
41884;DHT22;27566;50.930;5.328;2023-10-13T02:40:38;19.80;89.50
41884;DHT22;27566;50.930;5.328;2023-10-13T02:43:04;19.80;89.50
41884;DHT22;27566;50.930;5.328;2023-10-13T02:45:32;19.90;89.40
41884;DHT22;27566;50.930;5.328;2023-10-13T02:48:02;19.90;89.50
41884;DHT22;27566;50.930;5.328;2023-10-13T02:50:42;19.90;89.50
41884;DHT22;27566;50.930;5.328;2023-10-13T02:53:10;19.90;89.50
41884;DHT22;27566;50.930;5.328;2023-10-13T02:55:52;19.90;89.50
41884;DHT22;27566;50.930;5.328;2023-10-13T02:58:18;19.90;89.50
41884;DHT22;27566;50.930;5.328;2023-10-13T03:00:44;19.90;89.50
41884;DHT22;27566;50.930;5.328;2023-10-13T03:03:12;19.90;89.40
41884;DHT22;27566;50.930;5.328;2023-10-13T03:05:40;19.90;89.50
41884;DHT22;27566;50.930;5.328;2023-10-13T03:08:08;19.90;89.50
41884;DHT22;27566;50.930;5.328;2023-10-13T03:10:36;19.90;89.50
41884;DHT22;27566;50.930;5.328;2023-10-13T03:13:10;19.90;89.50
41884;DHT22;27566;50.930;5.328;2023-10-13T03:15:36;19.90;89.60
41884;DHT22;27566;50.930;5.328;2023-10-13T03:18:02;19.90;89.60
41884;DHT22;27566;50.930;5.328;2023-10-13T03:20:28;20.00;90.00
41884;DHT22;27566;50.930;5.328;2023-10-13T03:23:00;19.90;90.00
41884;DHT22;27566;50.930;5.328;2023-10-13T03:25:26;20.00;90.10
41884;DHT22;27566;50.930;5.328;2023-10-13T03:27:56;20.00;90.10
41884;DHT22;27566;50.930;5.328;2023-10-13T03:30:22;19.90;90.10
41884;DHT22;27566;50.930;5.328;2023-10-13T03:32:55;19.90;90.10
41884;DHT22;27566;50.930;5.328;2023-10-13T03:35:22;19.90;90.40
41884;DHT22;27566;50.930;5.328;2023-10-13T03:37:54;19.90;90.20
41884;DHT22;27566;50.930;5.328;2023-10-13T03:40:22;19.90;90.20
41884;DHT22;27566;50.930;5.328;2023-10-13T03:42:48;19.90;90.20
41884;DHT22;27566;50.930;5.328;2023-10-13T03:45:26;19.90;90.30
41884;DHT22;27566;50.930;5.328;2023-10-13T03:47:53;19.90;90.30
41884;DHT22;27566;50.930;5.328;2023-10-13T03:50:19;19.90;90.30
41884;DHT22;27566;50.930;5.328;2023-10-13T03:52:58;19.90;90.40
41884;DHT22;27566;50.930;5.328;2023-10-13T03:55:25;19.90;90.40
41884;DHT22;27566;50.930;5.328;2023-10-13T03:57:55;19.90;90.40
41884;DHT22;27566;50.930;5.328;2023-10-13T04:00:22;19.90;90.40
41884;DHT22;27566;50.930;5.328;2023-10-13T04:02:52;20.00;90.50
41884;DHT22;27566;50.930;5.328;2023-10-13T04:05:35;19.90;90.50
41884;DHT22;27566;50.930;5.328;2023-10-13T04:08:07;20.00;90.50
41884;DHT22;27566;50.930;5.328;2023-10-13T04:10:56;20.00;90.50
41884;DHT22;27566;50.930;5.328;2023-10-13T04:13:22;20.00;90.60
41884;DHT22;27566;50.930;5.328;2023-10-13T04:16:10;20.00;90.60
41884;DHT22;27566;50.930;5.328;2023-10-13T04:18:51;20.00;90.60
41884;DHT22;27566;50.930;5.328;2023-10-13T04:21:23;20.00;90.60
41884;DHT22;27566;50.930;5.328;2023-10-13T04:24:21;20.00;90.60
41884;DHT22;27566;50.930;5.328;2023-10-13T04:27:04;20.00;90.60
41884;DHT22;27566;50.930;5.328;2023-10-13T04:29:37;20.10;90.70
41884;DHT22;27566;50.930;5.328;2023-10-13T04:32:22;20.10;90.70
41884;DHT22;27566;50.930;5.328;2023-10-13T04:35:11;20.00;90.70
41884;DHT22;27566;50.930;5.328;2023-10-13T04:37:37;20.00;90.80
41884;DHT22;27566;50.930;5.328;2023-10-13T04:40:21;20.00;90.90
41884;DHT22;27566;50.930;5.328;2023-10-13T04:42:52;20.00;90.90
41884;DHT22;27566;50.930;5.328;2023-10-13T04:45:30;20.00;90.90
41884;DHT22;27566;50.930;5.328;2023-10-13T04:48:06;20.00;90.90
41884;DHT22;27566;50.930;5.328;2023-10-13T04:50:48;19.90;90.90
41884;DHT22;27566;50.930;5.328;2023-10-13T04:53:18;19.90;91.00
41884;DHT22;27566;50.930;5.328;2023-10-13T04:56:06;19.90;91.00
41884;DHT22;27566;50.930;5.328;2023-10-13T04:58:55;19.90;91.00
41884;DHT22;27566;50.930;5.328;2023-10-13T05:01:39;19.90;91.00
41884;DHT22;27566;50.930;5.328;2023-10-13T05:04:27;19.90;91.00
41884;DHT22;27566;50.930;5.328;2023-10-13T05:07:16;19.90;91.00
41884;DHT22;27566;50.930;5.328;2023-10-13T05:10:00;20.00;90.90
41884;DHT22;27566;50.930;5.328;2023-10-13T05:12:44;20.00;90.90
41884;DHT22;27566;50.930;5.328;2023-10-13T05:15:29;20.00;90.90
41884;DHT22;27566;50.930;5.328;2023-10-13T05:18:33;20.00;90.80
41884;DHT22;27566;50.930;5.328;2023-10-13T05:21:18;20.00;90.80
41884;DHT22;27566;50.930;5.328;2023-10-13T05:24:03;20.00;90.70
41884;DHT22;27566;50.930;5.328;2023-10-13T05:26:48;20.00;90.70
41884;DHT22;27566;50.930;5.328;2023-10-13T05:29:32;20.00;90.70
41884;DHT22;27566;50.930;5.328;2023-10-13T05:32:16;20.00;90.70
41884;DHT22;27566;50.930;5.328;2023-10-13T05:35:01;20.00;90.80
41884;DHT22;27566;50.930;5.328;2023-10-13T05:37:45;20.00;90.80
41884;DHT22;27566;50.930;5.328;2023-10-13T05:40:29;20.10;90.80
41884;DHT22;27566;50.930;5.328;2023-10-13T05:43:15;20.10;90.70
41884;DHT22;27566;50.930;5.328;2023-10-13T05:46:05;20.10;90.70
41884;DHT22;27566;50.930;5.328;2023-10-13T05:49:07;20.10;90.60
41884;DHT22;27566;50.930;5.328;2023-10-13T05:51:51;20.00;90.60
41884;DHT22;27566;50.930;5.328;2023-10-13T05:54:25;20.00;90.70
41884;DHT22;27566;50.930;5.328;2023-10-13T05:56:51;20.00;90.60
41884;DHT22;27566;50.930;5.328;2023-10-13T05:59:37;20.00;90.70
41884;DHT22;27566;50.930;5.328;2023-10-13T06:02:23;20.00;90.70
41884;DHT22;27566;50.930;5.328;2023-10-13T06:05:10;20.00;90.60
41884;DHT22;27566;50.930;5.328;2023-10-13T06:07:55;20.00;90.60
41884;DHT22;27566;50.930;5.328;2023-10-13T06:10:40;20.00;90.60
41884;DHT22;27566;50.930;5.328;2023-10-13T06:13:25;20.00;90.60
41884;DHT22;27566;50.930;5.328;2023-10-13T06:16:13;20.00;90.60
41884;DHT22;27566;50.930;5.328;2023-10-13T06:18:58;20.10;90.60
41884;DHT22;27566;50.930;5.328;2023-10-13T06:21:43;20.00;90.60
41884;DHT22;27566;50.930;5.328;2023-10-13T06:24:27;20.00;90.50
41884;DHT22;27566;50.930;5.328;2023-10-13T06:27:11;20.10;90.50
41884;DHT22;27566;50.930;5.328;2023-10-13T06:29:56;20.10;90.40
41884;DHT22;27566;50.930;5.328;2023-10-13T06:32:22;20.10;90.40
41884;DHT22;27566;50.930;5.328;2023-10-13T06:34:55;20.10;90.30
41884;DHT22;27566;50.930;5.328;2023-10-13T06:37:25;20.10;90.40
41884;DHT22;27566;50.930;5.328;2023-10-13T06:40:00;20.10;90.40
41884;DHT22;27566;50.930;5.328;2023-10-13T06:42:46;20.20;90.50
41884;DHT22;27566;50.930;5.328;2023-10-13T06:45:12;20.30;90.30
41884;DHT22;27566;50.930;5.328;2023-10-13T06:47:38;20.40;90.20
41884;DHT22;27566;50.930;5.328;2023-10-13T06:50:14;20.40;90.00
41884;DHT22;27566;50.930;5.328;2023-10-13T06:52:46;20.50;89.80
41884;DHT22;27566;50.930;5.328;2023-10-13T06:55:15;20.50;89.60
41884;DHT22;27566;50.930;5.328;2023-10-13T06:57:50;20.50;89.60
41884;DHT22;27566;50.930;5.328;2023-10-13T07:00:17;20.60;89.30
41884;DHT22;27566;50.930;5.328;2023-10-13T07:03:00;20.70;89.20
41884;DHT22;27566;50.930;5.328;2023-10-13T07:05:39;20.80;88.40
41884;DHT22;27566;50.930;5.328;2023-10-13T07:08:07;20.90;88.20
41884;DHT22;27566;50.930;5.328;2023-10-13T07:10:37;20.90;87.60
41884;DHT22;27566;50.930;5.328;2023-10-13T07:13:33;21.00;87.20
41884;DHT22;27566;50.930;5.328;2023-10-13T07:16:05;21.00;86.60
41884;DHT22;27566;50.930;5.328;2023-10-13T07:18:34;21.00;85.90
41884;DHT22;27566;50.930;5.328;2023-10-13T07:21:09;21.10;85.10
41884;DHT22;27566;50.930;5.328;2023-10-13T07:23:38;21.10;84.80
41884;DHT22;27566;50.930;5.328;2023-10-13T07:26:05;21.10;84.30
41884;DHT22;27566;50.930;5.328;2023-10-13T07:28:34;21.10;84.00
41884;DHT22;27566;50.930;5.328;2023-10-13T07:31:12;21.10;83.50
41884;DHT22;27566;50.930;5.328;2023-10-13T07:33:38;21.10;82.50
41884;DHT22;27566;50.930;5.328;2023-10-13T07:36:08;21.20;82.60
41884;DHT22;27566;50.930;5.328;2023-10-13T07:38:53;21.20;82.10
41884;DHT22;27566;50.930;5.328;2023-10-13T07:42:07;21.30;81.40
41884;DHT22;27566;50.930;5.328;2023-10-13T07:44:41;21.40;80.60
41884;DHT22;27566;50.930;5.328;2023-10-13T07:47:12;21.50;79.70
41884;DHT22;27566;50.930;5.328;2023-10-13T07:49:40;21.50;79.10
41884;DHT22;27566;50.930;5.328;2023-10-13T07:52:08;21.60;78.80
41884;DHT22;27566;50.930;5.328;2023-10-13T07:54:45;21.60;78.80
41884;DHT22;27566;50.930;5.328;2023-10-13T07:57:15;21.70;78.40
41884;DHT22;27566;50.930;5.328;2023-10-13T07:59:43;21.80;77.40
41884;DHT22;27566;50.930;5.328;2023-10-13T08:02:18;21.90;77.20
41884;DHT22;27566;50.930;5.328;2023-10-13T08:05:13;22.20;74.00
41884;DHT22;27566;50.930;5.328;2023-10-13T08:07:42;22.50;74.10
41884;DHT22;27566;50.930;5.328;2023-10-13T08:10:08;22.80;73.60
41884;DHT22;27566;50.930;5.328;2023-10-13T08:12:36;23.00;71.90
41884;DHT22;27566;50.930;5.328;2023-10-13T08:15:04;23.20;69.20
41884;DHT22;27566;50.930;5.328;2023-10-13T08:18:00;23.30;69.70
41884;DHT22;27566;50.930;5.328;2023-10-13T08:20:31;23.50;69.80
41884;DHT22;27566;50.930;5.328;2023-10-13T08:23:04;23.60;68.00
41884;DHT22;27566;50.930;5.328;2023-10-13T08:26:09;23.70;67.60
41884;DHT22;27566;50.930;5.328;2023-10-13T08:28:59;23.90;66.00
41884;DHT22;27566;50.930;5.328;2023-10-13T08:31:50;24.00;65.30
41884;DHT22;27566;50.930;5.328;2023-10-13T08:34:35;24.30;65.10
41884;DHT22;27566;50.930;5.328;2023-10-13T08:37:25;24.40;64.60
41884;DHT22;27566;50.930;5.328;2023-10-13T08:39:55;24.50;63.80
41884;DHT22;27566;50.930;5.328;2023-10-13T08:42:32;24.50;63.50
41884;DHT22;27566;50.930;5.328;2023-10-13T08:47:49;24.60;62.40
41884;DHT22;27566;50.930;5.328;2023-10-13T08:50:44;24.70;61.60
41884;DHT22;27566;50.930;5.328;2023-10-13T08:53:31;24.70;62.30
41884;DHT22;27566;50.930;5.328;2023-10-13T08:56:11;24.70;62.00
41884;DHT22;27566;50.930;5.328;2023-10-13T08:58:49;24.70;61.70
41884;DHT22;27566;50.930;5.328;2023-10-13T09:01:19;24.80;61.30
41884;DHT22;27566;50.930;5.328;2023-10-13T09:04:08;24.90;61.10
41884;DHT22;27566;50.930;5.328;2023-10-13T09:07:01;25.00;60.40
41884;DHT22;27566;50.930;5.328;2023-10-13T09:09:34;25.00;60.90
41884;DHT22;27566;50.930;5.328;2023-10-13T09:14:43;25.00;60.40
41884;DHT22;27566;50.930;5.328;2023-10-13T09:17:23;25.00;59.80
41884;DHT22;27566;50.930;5.328;2023-10-13T09:19:59;25.00;60.30
41884;DHT22;27566;50.930;5.328;2023-10-13T09:22:37;25.10;60.20
41884;DHT22;27566;50.930;5.328;2023-10-13T09:25:03;25.20;59.50
41884;DHT22;27566;50.930;5.328;2023-10-13T09:27:38;25.20;59.80
41884;DHT22;27566;50.930;5.328;2023-10-13T09:30:05;25.30;58.80
41884;DHT22;27566;50.930;5.328;2023-10-13T09:32:59;25.40;58.40
41884;DHT22;27566;50.930;5.328;2023-10-13T09:35:27;25.40;58.70
41884;DHT22;27566;50.930;5.328;2023-10-13T09:37:53;25.50;58.50
41884;DHT22;27566;50.930;5.328;2023-10-13T09:40:22;25.50;58.30
41884;DHT22;27566;50.930;5.328;2023-10-13T09:43:11;25.50;57.90
41884;DHT22;27566;50.930;5.328;2023-10-13T09:45:48;25.50;58.20
41884;DHT22;27566;50.930;5.328;2023-10-13T09:48:36;25.60;57.80
41884;DHT22;27566;50.930;5.328;2023-10-13T09:51:12;25.60;57.80
41884;DHT22;27566;50.930;5.328;2023-10-13T09:53:43;25.70;58.20
41884;DHT22;27566;50.930;5.328;2023-10-13T09:56:26;25.80;57.60
41884;DHT22;27566;50.930;5.328;2023-10-13T09:59:13;25.70;56.90
41884;DHT22;27566;50.930;5.328;2023-10-13T10:01:43;25.70;57.80
41884;DHT22;27566;50.930;5.328;2023-10-13T10:04:38;25.80;57.50
41884;DHT22;27566;50.930;5.328;2023-10-13T10:07:10;25.90;56.80
41884;DHT22;27566;50.930;5.328;2023-10-13T10:09:36;25.90;56.70
41884;DHT22;27566;50.930;5.328;2023-10-13T10:12:31;26.00;56.40
41884;DHT22;27566;50.930;5.328;2023-10-13T10:15:23;26.00;55.80
41884;DHT22;27566;50.930;5.328;2023-10-13T10:18:22;26.00;56.10
41884;DHT22;27566;50.930;5.328;2023-10-13T10:20:48;26.00;56.00
41884;DHT22;27566;50.930;5.328;2023-10-13T10:23:28;26.00;56.00
41884;DHT22;27566;50.930;5.328;2023-10-13T10:26:14;26.00;56.30
41884;DHT22;27566;50.930;5.328;2023-10-13T10:28:42;26.00;55.90
41884;DHT22;27566;50.930;5.328;2023-10-13T10:31:10;26.00;55.30
41884;DHT22;27566;50.930;5.328;2023-10-13T10:33:40;26.10;55.50
41884;DHT22;27566;50.930;5.328;2023-10-13T10:36:07;26.10;55.60
41884;DHT22;27566;50.930;5.328;2023-10-13T10:38:55;26.20;55.10
41884;DHT22;27566;50.930;5.328;2023-10-13T10:41:29;26.30;55.40
41884;DHT22;27566;50.930;5.328;2023-10-13T10:44:18;26.40;55.10
41884;DHT22;27566;50.930;5.328;2023-10-13T10:47:12;26.40;54.90
41884;DHT22;27566;50.930;5.328;2023-10-13T10:49:45;26.50;55.00
41884;DHT22;27566;50.930;5.328;2023-10-13T10:52:16;26.50;53.90
41884;DHT22;27566;50.930;5.328;2023-10-13T10:54:44;26.40;54.30
41884;DHT22;27566;50.930;5.328;2023-10-13T10:57:11;26.40;54.70
41884;DHT22;27566;50.930;5.328;2023-10-13T10:59:38;26.50;54.80
41884;DHT22;27566;50.930;5.328;2023-10-13T11:02:04;26.50;54.50
41884;DHT22;27566;50.930;5.328;2023-10-13T11:04:32;26.50;54.50
41884;DHT22;27566;50.930;5.328;2023-10-13T11:07:06;26.50;54.50
41884;DHT22;27566;50.930;5.328;2023-10-13T11:09:33;26.60;54.80
41884;DHT22;27566;50.930;5.328;2023-10-13T11:12:13;26.60;54.40
41884;DHT22;27566;50.930;5.328;2023-10-13T11:15:00;26.70;54.10
41884;DHT22;27566;50.930;5.328;2023-10-13T11:17:26;26.70;54.40
41884;DHT22;27566;50.930;5.328;2023-10-13T11:20:13;26.70;54.20
41884;DHT22;27566;50.930;5.328;2023-10-13T11:22:49;26.70;53.60
41884;DHT22;27566;50.930;5.328;2023-10-13T11:25:26;26.80;53.50
41884;DHT22;27566;50.930;5.328;2023-10-13T11:27:56;26.70;53.10
41884;DHT22;27566;50.930;5.328;2023-10-13T11:30:26;26.80;53.20
41884;DHT22;27566;50.930;5.328;2023-10-13T11:33:02;26.70;53.50
41884;DHT22;27566;50.930;5.328;2023-10-13T11:35:32;26.80;53.10
41884;DHT22;27566;50.930;5.328;2023-10-13T11:38:17;26.90;52.60
41884;DHT22;27566;50.930;5.328;2023-10-13T11:43:34;27.10;51.90
41884;DHT22;27566;50.930;5.328;2023-10-13T11:46:16;27.20;51.50
41884;DHT22;27566;50.930;5.328;2023-10-13T11:48:43;27.30;51.80
41884;DHT22;27566;50.930;5.328;2023-10-13T11:51:11;27.30;52.20
41884;DHT22;27566;50.930;5.328;2023-10-13T11:53:45;27.30;51.90
41884;DHT22;27566;50.930;5.328;2023-10-13T11:56:20;27.30;51.80
41884;DHT22;27566;50.930;5.328;2023-10-13T11:58:47;27.30;51.60
41884;DHT22;27566;50.930;5.328;2023-10-13T12:01:14;27.20;51.70
41884;DHT22;27566;50.930;5.328;2023-10-13T12:03:43;27.10;51.70
41884;DHT22;27566;50.930;5.328;2023-10-13T12:06:29;27.00;51.80
41884;DHT22;27566;50.930;5.328;2023-10-13T12:11:57;26.90;51.50
41884;DHT22;27566;50.930;5.328;2023-10-13T12:14:26;27.00;50.60
41884;DHT22;27566;50.930;5.328;2023-10-13T12:17:36;26.90;50.90
41884;DHT22;27566;50.930;5.328;2023-10-13T12:20:08;26.90;51.20
41884;DHT22;27566;50.930;5.328;2023-10-13T12:22:43;27.00;51.30
41884;DHT22;27566;50.930;5.328;2023-10-13T12:25:09;27.20;51.10
41884;DHT22;27566;50.930;5.328;2023-10-13T12:27:53;27.20;50.90
41884;DHT22;27566;50.930;5.328;2023-10-13T12:30:26;27.30;50.50
41884;DHT22;27566;50.930;5.328;2023-10-13T12:33:10;27.40;50.40
41884;DHT22;27566;50.930;5.328;2023-10-13T12:35:38;27.60;50.10
41884;DHT22;27566;50.930;5.328;2023-10-13T12:38:24;27.60;49.80
41884;DHT22;27566;50.930;5.328;2023-10-13T12:41:08;27.60;50.20
41884;DHT22;27566;50.930;5.328;2023-10-13T12:43:53;27.60;49.80
41884;DHT22;27566;50.930;5.328;2023-10-13T12:46:37;27.50;49.50
41884;DHT22;27566;50.930;5.328;2023-10-13T12:49:21;27.50;49.80
41884;DHT22;27566;50.930;5.328;2023-10-13T12:52:05;27.50;50.00
41884;DHT22;27566;50.930;5.328;2023-10-13T12:54:47;27.40;49.80
41884;DHT22;27566;50.930;5.328;2023-10-13T12:57:25;27.40;49.80
41884;DHT22;27566;50.930;5.328;2023-10-13T12:59:51;27.30;50.10
41884;DHT22;27566;50.930;5.328;2023-10-13T13:02:26;27.20;49.50
41884;DHT22;27566;50.930;5.328;2023-10-13T13:04:56;27.10;50.10
41884;DHT22;27566;50.930;5.328;2023-10-13T13:07:32;27.00;50.20
41884;DHT22;27566;50.930;5.328;2023-10-13T13:10:15;26.90;50.40
41884;DHT22;27566;50.930;5.328;2023-10-13T13:12:44;26.80;50.20
41884;DHT22;27566;50.930;5.328;2023-10-13T13:15:10;26.60;50.60
41884;DHT22;27566;50.930;5.328;2023-10-13T13:17:38;26.60;51.00
41884;DHT22;27566;50.930;5.328;2023-10-13T13:20:08;26.50;51.10
41884;DHT22;27566;50.930;5.328;2023-10-13T13:22:51;26.40;51.30
41884;DHT22;27566;50.930;5.328;2023-10-13T13:25:19;26.40;51.70
41884;DHT22;27566;50.930;5.328;2023-10-13T13:27:51;26.20;51.50
41884;DHT22;27566;50.930;5.328;2023-10-13T13:30:17;26.20;51.60
41884;DHT22;27566;50.930;5.328;2023-10-13T13:32:45;26.10;52.10
41884;DHT22;27566;50.930;5.328;2023-10-13T13:35:12;26.00;52.30
41884;DHT22;27566;50.930;5.328;2023-10-13T13:37:40;25.90;52.40
41884;DHT22;27566;50.930;5.328;2023-10-13T13:40:08;25.80;52.50
41884;DHT22;27566;50.930;5.328;2023-10-13T13:42:45;25.70;52.70
41884;DHT22;27566;50.930;5.328;2023-10-13T13:45:18;25.70;52.90
41884;DHT22;27566;50.930;5.328;2023-10-13T13:47:50;25.50;53.90
41884;DHT22;27566;50.930;5.328;2023-10-13T13:50:28;25.40;53.40
41884;DHT22;27566;50.930;5.328;2023-10-13T13:52:57;25.40;53.40
41884;DHT22;27566;50.930;5.328;2023-10-13T13:55:24;25.50;53.40
41884;DHT22;27566;50.930;5.328;2023-10-13T13:57:56;25.60;53.90
41884;DHT22;27566;50.930;5.328;2023-10-13T14:00:22;25.60;53.40
41884;DHT22;27566;50.930;5.328;2023-10-13T14:03:06;25.60;53.30
41884;DHT22;27566;50.930;5.328;2023-10-13T14:06:00;25.60;53.40
41884;DHT22;27566;50.930;5.328;2023-10-13T14:08:26;25.40;53.60
41884;DHT22;27566;50.930;5.328;2023-10-13T14:10:55;25.40;53.70
41884;DHT22;27566;50.930;5.328;2023-10-13T14:13:48;25.40;53.80
41884;DHT22;27566;50.930;5.328;2023-10-13T14:16:22;25.30;53.80
41884;DHT22;27566;50.930;5.328;2023-10-13T14:18:50;25.20;54.00
41884;DHT22;27566;50.930;5.328;2023-10-13T14:21:17;25.20;54.00
41884;DHT22;27566;50.930;5.328;2023-10-13T14:23:46;25.20;54.30
41884;DHT22;27566;50.930;5.328;2023-10-13T14:26:14;25.20;54.30
41884;DHT22;27566;50.930;5.328;2023-10-13T14:28:40;25.10;54.50
41884;DHT22;27566;50.930;5.328;2023-10-13T14:31:20;25.10;54.50
41884;DHT22;27566;50.930;5.328;2023-10-13T14:33:47;25.00;54.60
41884;DHT22;27566;50.930;5.328;2023-10-13T14:36:13;25.00;54.70
41884;DHT22;27566;50.930;5.328;2023-10-13T14:38:40;25.00;54.60
41884;DHT22;27566;50.930;5.328;2023-10-13T14:41:10;25.00;54.90
41884;DHT22;27566;50.930;5.328;2023-10-13T14:43:35;25.00;55.00
41884;DHT22;27566;50.930;5.328;2023-10-13T14:46:01;25.00;55.00
41884;DHT22;27566;50.930;5.328;2023-10-13T14:48:30;25.00;54.60
41884;DHT22;27566;50.930;5.328;2023-10-13T14:50:56;25.00;54.70
41884;DHT22;27566;50.930;5.328;2023-10-13T14:53:22;25.00;54.90
41884;DHT22;27566;50.930;5.328;2023-10-13T14:55:48;25.00;54.80
41884;DHT22;27566;50.930;5.328;2023-10-13T14:58:14;24.90;54.50
41884;DHT22;27566;50.930;5.328;2023-10-13T15:00:44;24.90;54.80
41884;DHT22;27566;50.930;5.328;2023-10-13T15:03:13;24.90;54.80
41884;DHT22;27566;50.930;5.328;2023-10-13T15:05:39;24.90;54.80
41884;DHT22;27566;50.930;5.328;2023-10-13T15:08:05;24.80;55.30
41884;DHT22;27566;50.930;5.328;2023-10-13T15:10:32;24.70;55.50
41884;DHT22;27566;50.930;5.328;2023-10-13T15:12:58;24.70;55.80
41884;DHT22;27566;50.930;5.328;2023-10-13T15:15:24;24.70;56.60
41884;DHT22;27566;50.930;5.328;2023-10-13T15:17:50;24.60;57.00
41884;DHT22;27566;50.930;5.328;2023-10-13T15:20:16;24.60;57.00
41884;DHT22;27566;50.930;5.328;2023-10-13T15:22:46;24.50;56.50
41884;DHT22;27566;50.930;5.328;2023-10-13T15:25:15;24.60;56.30
41884;DHT22;27566;50.930;5.328;2023-10-13T15:28:02;24.40;56.60
41884;DHT22;27566;50.930;5.328;2023-10-13T15:30:28;24.30;56.60
41884;DHT22;27566;50.930;5.328;2023-10-13T15:33:20;24.20;56.80
41884;DHT22;27566;50.930;5.328;2023-10-13T15:35:46;24.10;57.10
41884;DHT22;27566;50.930;5.328;2023-10-13T15:38:12;24.00;57.20
41884;DHT22;27566;50.930;5.328;2023-10-13T15:40:44;24.00;57.30
41884;DHT22;27566;50.930;5.328;2023-10-13T15:43:11;23.90;57.50
41884;DHT22;27566;50.930;5.328;2023-10-13T15:45:36;23.90;57.70
41884;DHT22;27566;50.930;5.328;2023-10-13T15:48:05;23.80;57.80
41884;DHT22;27566;50.930;5.328;2023-10-13T15:50:39;23.80;58.00
41884;DHT22;27566;50.930;5.328;2023-10-13T15:53:05;23.70;58.20
41884;DHT22;27566;50.930;5.328;2023-10-13T15:55:35;23.70;58.40
41884;DHT22;27566;50.930;5.328;2023-10-13T15:58:05;23.70;58.50
41884;DHT22;27566;50.930;5.328;2023-10-13T16:00:35;23.60;59.40
41884;DHT22;27566;50.930;5.328;2023-10-13T16:03:01;23.50;60.50
41884;DHT22;27566;50.930;5.328;2023-10-13T16:05:30;23.40;61.30
41884;DHT22;27566;50.930;5.328;2023-10-13T16:08:00;23.30;62.00
41884;DHT22;27566;50.930;5.328;2023-10-13T16:10:26;23.20;62.90
41884;DHT22;27566;50.930;5.328;2023-10-13T16:12:55;23.00;63.00
41884;DHT22;27566;50.930;5.328;2023-10-13T16:15:24;22.90;63.40
41884;DHT22;27566;50.930;5.328;2023-10-13T16:17:49;22.80;64.20
41884;DHT22;27566;50.930;5.328;2023-10-13T16:20:19;22.70;64.40
41884;DHT22;27566;50.930;5.328;2023-10-13T16:22:47;22.60;65.30
41884;DHT22;27566;50.930;5.328;2023-10-13T16:25:14;22.50;65.90
41884;DHT22;27566;50.930;5.328;2023-10-13T16:27:42;22.40;66.40